Four Corners, Washington
Current Conditions -  °F | °C
As of 7:53 PM on Tuesday 27 Jan 2015 (Local Time) from KRNT Reporting Station
Overcast Overcast  
Wind Chill: 50°   Ceiling: 1100
Heat Index: 50°   Visibility: 7mi
Dew Point: 49°   Wind: 3mph
Humidity: 96%   Direction: 340°NNW
Pressure: 30.18"   Gusts: NA
Location:  47.4066°N, 122.018°W
Report Text: KRNT 280353Z AUTO 34003KT 7SM BKN011 OVC042 10/09 A3018 RMK AO2 SLP226 T01000094
Loading
Personal Weather Stations






























Interactive Weather Map New forecast layout! Learn more

10-Day Weather Forecast

Advertisements
Track Severe Weather on mobile